KHPN

Westchester County Airport

White Plains, New York, USA
METAR KHPN 151656Z 02008KT 10SM SCT031 BKN046 11/07 A3012 RMK AO2 DZE51 SLP200 P0000 T01060072
Observed Flight Rules
Dec-15 @ 16:56 UTC (15 minutes ago) Visual Flight Rules
Wind Visibility Clouds
20° at 8 knots 10 miles
  • Scattered at 3,100' AGL
  • Broken at 4,600' AGL
Temperatures Readings Precipitation
Current 11°C / 52°F
Dewpoint 7°C / 45°F
Humidity 77%
Altimeter 30.12" Hg
Pressure 1020 hPa
Elevation 121
Current Rain 0.005
METAR KHPN 151656Z 02008KT 10SM SCT031 BKN046 11/07 A3012 RMK AO2 DZE51 SLP200 P0000 T01060072
Observed Flight Rules
Dec-15 @ 16:56 UTC
(15 minutes ago)
VFR
Wind Visibility
20° at 8 knots 10 miles
Clouds
  • Scattered at 3,100' AGL
  • Broken at 4,600' AGL
Temperature Dewpoint
11°C / 52°F 7°C / 45°F
Humidity Altimeter Pressure
77% 30.12" Hg 1020 hPa
Current Rain
0.005